Аэропорт: Брянск. Брянск

ICAO: UUBP

METAR:
Информация по данной станции не доступна
METAR:
2020-10-19 13:44:00
TAF UUBP 191344Z 1915/1924 25006G12MPS 9999 BKN030 TEMPO 1915/1918 -SHRA BKN020CB